Rural Hall, North Carolina
Current Conditions -  °F | °C
As of 1:54 AM on Wednesday 26 Nov 2014 (Local Time) from KINT Reporting Station
Light Rain Light Rain  
Wind Chill: 41°   Ceiling: 2600
Heat Index: 46°   Visibility: 9mi
Dew Point: 41°   Wind: 9mph
Humidity: 83%   Direction: 350°N
Pressure: 30.01"   Gusts: NA
Location:  36.23°N, 80.29°W
Report Text: KINT 260654Z 35008KT 9SM -RA BKN026 BKN033 OVC070 08/05 A3001 RMK AO2 SLP159 P0003 T00780050
Loading
Personal Weather Stations






























Interactive Weather Map New forecast layout! Learn more

10-Day Weather Forecast

Advertisements
Track Severe Weather on mobile